Main page
METAR-TAF:

METAR-TAF

Airports :

Le Havre, France

Le Havre – Octeville Airport

latitude: 49-31N, longitude: 000-04E, elevation: 100 m

Current weather observation

The report was made 14 minutes ago, at 18:30 UTC
Wind 5 kt from the East/Southeast
Temperature 15°C
Humidity 59%
Pressure 1020 hPa
Visibility 10 km or more
no clouds below 1500 m and no cumulonimbus

METAR: LFOH 261830Z AUTO 11005KT CAVOK 15/07 Q1020 NOSIG

Time: 20:44 (18:44 UTC)

Forecast

The report was made 7 hours and 44 minutes ago, at 11:00 UTC
Forecast valid from 26 at 12 UTC to 27 at 12 UTC
Wind 10 kt from the East
Visibility 10 km or more
no clouds below 1500 m and no cumulonimbus

TAF: LFOH 261100Z 2612/2712 09010KT CAVOK

Weather observations and forecasts of more than 4000 airports (METAR and TAF reports).

The available stations are represented by yellow and red dots on the map.

Hover mouse over dot to see the name of the station.

Then click to see weather observations and forecasts.

To change the map : click on the green buttons with a black cross to zoom in, on the green button with a dash to zoom out, or on the green arrows for adjacent maps.


METAR-TAF: